Time;durP1;ratioP1;P1;durP2;ratioP2;P2;SDS_P1;SDS_P2;PMS_P1;PMS_P2;Temp;Humidity;BMP_temperature;BMP_pressure;BME280_temperature;BME280_humidity;BME280_pressure;Samples;Min_cycle;Max_cycle;Signal;HPM_P1;HPM_P2
2023/05/20 00:01:43;;;;;;;7.15;3.20;;;;;;;;;;4969259;28;20023;-77
2023/05/20 00:04:10;;;;;;;13.35;2.70;;;;;;;;;;4969417;28;20101;-76
2023/05/20 00:06:36;;;;;;;8.07;2.67;;;;;;;;;;4955893;28;20060;-77
2023/05/20 00:09:02;;;;;;;8.75;2.92;;;;;;;;;;4971789;28;20027;-77
2023/05/20 00:11:28;;;;;;;9.55;3.88;;;;;;;;;;4964093;28;20027;-77
2023/05/20 00:13:54;;;;;;;8.00;3.90;;;;;;;;;;4957266;28;20031;-76
2023/05/20 00:16:20;;;;;;;10.02;4.38;;;;;;;;;;4953833;28;20094;-77
2023/05/20 00:18:46;;;;;;;10.57;3.80;;;;;;;;;;4959434;28;20057;-77
2023/05/20 00:21:12;;;;;;;9.27;2.83;;;;;;;;;;4962286;28;20174;-77
2023/05/20 00:23:38;;;;;;;9.20;2.78;;;;;;;;;;4967014;28;20027;-76
2023/05/20 00:26:05;;;;;;;9.38;3.50;;;;;;;;;;4947985;28;20117;-78
2023/05/20 00:28:31;;;;;;;13.13;4.05;;;;;;;;;;4968687;28;20041;-76
2023/05/20 00:30:57;;;;;;;11.20;4.65;;;;;;;;;;4944757;29;20035;-77
2023/05/20 00:33:23;;;;;;;14.10;4.10;;;;;;;;;;4967838;28;20486;-77
2023/05/20 00:35:49;;;;;;;10.75;4.05;;;;;;;;;;4961728;28;20390;-77
2023/05/20 00:38:15;;;;;;;16.70;4.57;;;;;;;;;;4961567;28;20031;-76
2023/05/20 00:40:41;;;;;;;7.95;3.33;;;;;;;;;;4955762;28;20039;-77
2023/05/20 00:43:10;;;;;;;7.13;3.42;;;;;;;;;;4960350;28;20033;-77
2023/05/20 00:45:37;;;;;;;9.23;3.10;;;;;;;;;;4972132;28;20019;-76
2023/05/20 00:48:03;;;;;;;12.27;4.25;;;;;;;;;;4972269;28;20084;-77
2023/05/20 00:50:30;;;;;;;9.48;2.47;;;;;;;;;;4960024;28;20031;-77
2023/05/20 00:52:57;;;;;;;10.50;3.70;;;;;;;;;;4964329;28;20066;-77
2023/05/20 00:55:23;;;;;;;6.57;2.55;;;;;;;;;;4947552;28;20393;-76
2023/05/20 00:57:50;;;;;;;9.02;4.10;;;;;;;;;;4935268;29;20039;-76
2023/05/20 01:00:16;;;;;;;9.30;3.80;;;;;;;;;;4965161;28;20029;-77
2023/05/20 01:02:42;;;;;;;9.23;4.93;;;;;;;;;;4957226;28;20031;-77
2023/05/20 01:05:08;;;;;;;4.68;2.20;;;;;;;;;;4951986;28;20027;-77
2023/05/20 01:07:34;;;;;;;12.27;4.40;;;;;;;;;;4963492;28;20030;-75
2023/05/20 01:10:00;;;;;;;12.48;4.03;;;;;;;;;;4953578;28;20126;-76
2023/05/20 01:12:28;;;;;;;11.32;4.03;;;;;;;;;;4963708;28;20094;-77
2023/05/20 01:14:59;;;;;;;7.00;3.00;;;;;;;;;;4964123;28;20112;-77
2023/05/20 01:17:26;;;;;;;7.93;3.38;;;;;;;;;;4950152;28;20050;-77
2023/05/20 01:19:55;;;;;;;7.13;2.47;;;;;;;;;;4971533;28;20113;-75
2023/05/20 01:22:27;;;;;;;7.80;3.38;;;;;;;;;;4962797;28;20481;-76
2023/05/20 01:24:53;;;;;;;12.57;5.13;;;;;;;;;;4965170;28;20548;-76
2023/05/20 01:27:21;;;;;;;11.70;4.68;;;;;;;;;;4940763;29;20046;-76
2023/05/20 01:29:49;;;;;;;9.82;4.07;;;;;;;;;;4968971;28;20130;-76
2023/05/20 01:32:27;;;;;;;11.43;4.03;;;;;;;;;;4969834;28;20045;-76
2023/05/20 01:34:54;;;;;;;10.30;4.28;;;;;;;;;;4959341;28;20030;-77
2023/05/20 01:37:22;;;;;;;10.25;3.85;;;;;;;;;;4971250;28;20055;-76
2023/05/20 01:39:49;;;;;;;7.57;3.42;;;;;;;;;;4968055;28;20092;-76
2023/05/20 01:42:16;;;;;;;10.45;4.05;;;;;;;;;;4958913;28;20034;-76
2023/05/20 01:44:42;;;;;;;15.20;4.85;;;;;;;;;;4940588;28;20484;-76
2023/05/20 01:47:09;;;;;;;7.18;2.67;;;;;;;;;;4970706;28;20023;-75
2023/05/20 01:49:35;;;;;;;12.57;4.15;;;;;;;;;;4952170;28;20031;-77
2023/05/20 01:52:01;;;;;;;10.88;4.72;;;;;;;;;;4967461;28;20043;-78
2023/05/20 01:54:27;;;;;;;8.27;3.65;;;;;;;;;;4953777;28;20134;-77
2023/05/20 01:56:53;;;;;;;9.88;3.13;;;;;;;;;;4972233;28;20154;-76
2023/05/20 01:59:19;;;;;;;9.55;2.92;;;;;;;;;;4935417;29;20070;-76
2023/05/20 02:01:45;;;;;;;10.30;2.83;;;;;;;;;;4946077;28;20085;-76
2023/05/20 02:04:11;;;;;;;6.90;2.40;;;;;;;;;;4970343;28;20047;-78
2023/05/20 02:06:37;;;;;;;9.63;4.03;;;;;;;;;;4959332;28;20023;-76
2023/05/20 02:09:04;;;;;;;10.40;3.05;;;;;;;;;;4965147;28;20027;-76
2023/05/20 02:11:30;;;;;;;7.10;2.90;;;;;;;;;;4963807;28;20039;-76
2023/05/20 02:13:56;;;;;;;10.68;4.82;;;;;;;;;;4952983;28;20026;-78
2023/05/20 02:16:22;;;;;;;8.55;2.60;;;;;;;;;;4958920;28;20094;-77
2023/05/20 02:18:51;;;;;;;7.15;2.00;;;;;;;;;;4954065;28;20106;-75
2023/05/20 02:21:18;;;;;;;8.50;2.93;;;;;;;;;;4954309;28;20034;-77
2023/05/20 02:23:44;;;;;;;7.78;3.38;;;;;;;;;;4952477;28;20027;-77
2023/05/20 02:26:10;;;;;;;5.80;2.25;;;;;;;;;;4963667;28;20477;-77
2023/05/20 02:28:43;;;;;;;7.63;3.10;;;;;;;;;;4965308;28;20031;-77
2023/05/20 02:31:09;;;;;;;12.15;4.93;;;;;;;;;;4933857;29;20128;-78
2023/05/20 02:33:35;;;;;;;10.15;4.28;;;;;;;;;;4964850;28;20038;-76
2023/05/20 02:36:02;;;;;;;7.97;2.97;;;;;;;;;;4945147;29;20051;-76
2023/05/20 02:38:31;;;;;;;21.98;4.47;;;;;;;;;;4935379;29;20054;-75
2023/05/20 02:40:58;;;;;;;8.23;2.85;;;;;;;;;;4931726;29;20019;-76
2023/05/20 02:43:25;;;;;;;9.70;4.13;;;;;;;;;;4931260;29;20047;-79
2023/05/20 02:45:51;;;;;;;8.32;2.88;;;;;;;;;;4943713;29;20032;-77
2023/05/20 02:48:17;;;;;;;7.72;2.95;;;;;;;;;;4950257;29;20058;-77
2023/05/20 02:50:43;;;;;;;12.25;3.40;;;;;;;;;;4947372;29;20043;-75
2023/05/20 02:53:09;;;;;;;8.52;3.92;;;;;;;;;;4923163;29;20058;-78
2023/05/20 02:55:35;;;;;;;9.45;3.95;;;;;;;;;;4935324;29;20062;-76
2023/05/20 02:58:01;;;;;;;9.75;4.53;;;;;;;;;;4946165;28;20043;-76
2023/05/20 03:00:30;;;;;;;9.05;2.83;;;;;;;;;;4948177;29;20023;-78
2023/05/20 03:02:56;;;;;;;9.45;3.50;;;;;;;;;;4950131;29;20509;-77
2023/05/20 03:05:22;;;;;;;12.13;4.93;;;;;;;;;;4933295;29;20028;-76
2023/05/20 03:07:48;;;;;;;7.28;2.90;;;;;;;;;;4951185;29;20490;-77
2023/05/20 03:10:15;;;;;;;8.02;4.55;;;;;;;;;;4937990;29;20554;-77
2023/05/20 03:12:41;;;;;;;10.98;3.97;;;;;;;;;;4925273;29;20604;-78
2023/05/20 03:15:08;;;;;;;7.07;3.50;;;;;;;;;;4936984;29;20031;-77
2023/05/20 03:17:34;;;;;;;8.93;3.90;;;;;;;;;;4931173;29;20946;-76
2023/05/20 03:20:00;;;;;;;10.13;3.10;;;;;;;;;;4945503;29;20035;-77
2023/05/20 03:22:27;;;;;;;8.75;2.83;;;;;;;;;;4932964;29;20028;-77
2023/05/20 03:24:53;;;;;;;10.38;2.33;;;;;;;;;;4947719;29;20035;-77
2023/05/20 03:27:20;;;;;;;7.32;3.65;;;;;;;;;;4951313;29;20032;-76
2023/05/20 03:29:47;;;;;;;8.77;4.10;;;;;;;;;;4939198;29;20046;-78
2023/05/20 03:32:13;;;;;;;7.13;2.60;;;;;;;;;;4951128;29;20046;-78
2023/05/20 03:34:39;;;;;;;7.25;3.10;;;;;;;;;;4941736;29;20027;-78
2023/05/20 03:37:05;;;;;;;10.15;3.03;;;;;;;;;;4928629;29;20054;-77
2023/05/20 03:39:31;;;;;;;9.10;2.78;;;;;;;;;;4951588;29;20050;-78
2023/05/20 03:41:57;;;;;;;10.65;3.70;;;;;;;;;;4935905;29;20475;-78
2023/05/20 03:44:23;;;;;;;9.45;3.88;;;;;;;;;;4948952;29;20031;-78
2023/05/20 03:46:49;;;;;;;11.23;4.40;;;;;;;;;;4945209;29;20513;-77
2023/05/20 03:49:15;;;;;;;12.10;4.32;;;;;;;;;;4936385;29;20028;-76
2023/05/20 03:51:41;;;;;;;10.50;3.83;;;;;;;;;;4953816;29;20464;-77
2023/05/20 03:54:07;;;;;;;8.43;4.82;;;;;;;;;;4940492;29;20027;-77
2023/05/20 03:56:33;;;;;;;8.82;3.17;;;;;;;;;;4943960;29;20522;-76
2023/05/20 03:59:00;;;;;;;11.05;2.90;;;;;;;;;;4947392;29;20035;-77
2023/05/20 04:01:26;;;;;;;10.13;3.95;;;;;;;;;;4953209;29;20030;-76
2023/05/20 04:03:52;;;;;;;9.43;3.08;;;;;;;;;;4947325;29;20478;-78
2023/05/20 04:06:18;;;;;;;8.20;2.80;;;;;;;;;;4926891;29;20038;-78
2023/05/20 04:08:44;;;;;;;7.80;2.72;;;;;;;;;;4941194;29;20031;-76
2023/05/20 04:11:10;;;;;;;6.78;2.60;;;;;;;;;;4946896;29;20043;-76
2023/05/20 04:13:36;;;;;;;10.07;3.45;;;;;;;;;;4950201;29;20102;-75
2023/05/20 04:16:04;;;;;;;6.55;3.35;;;;;;;;;;4934075;29;20026;-77
2023/05/20 04:18:30;;;;;;;10.60;3.90;;;;;;;;;;4948498;29;20039;-77
2023/05/20 04:20:58;;;;;;;10.25;2.45;;;;;;;;;;4952211;29;20418;-76
2023/05/20 04:23:25;;;;;;;8.45;2.90;;;;;;;;;;4950216;29;20070;-76
2023/05/20 04:25:50;;;;;;;9.25;2.78;;;;;;;;;;4934401;29;20083;-77
2023/05/20 04:28:17;;;;;;;8.88;5.15;;;;;;;;;;4941273;29;20031;-74
2023/05/20 04:30:44;;;;;;;10.85;4.38;;;;;;;;;;4955324;29;20030;-75
2023/05/20 04:33:10;;;;;;;11.68;3.20;;;;;;;;;;4939452;29;20038;-77
2023/05/20 04:35:37;;;;;;;8.70;4.43;;;;;;;;;;4944624;28;20156;-77
2023/05/20 04:38:03;;;;;;;9.38;2.53;;;;;;;;;;4971985;28;20027;-76
2023/05/20 04:40:29;;;;;;;8.68;3.15;;;;;;;;;;4954672;28;20412;-77
2023/05/20 04:42:57;;;;;;;7.65;2.45;;;;;;;;;;4952729;28;20034;-76
2023/05/20 04:45:23;;;;;;;9.57;3.17;;;;;;;;;;4940700;28;20023;-77
2023/05/20 04:47:52;;;;;;;8.00;2.45;;;;;;;;;;4954893;28;20126;-76
2023/05/20 04:50:18;;;;;;;10.68;4.10;;;;;;;;;;4945126;29;20043;-76
2023/05/20 04:52:44;;;;;;;6.30;2.88;;;;;;;;;;4962531;28;20038;-75
2023/05/20 04:55:11;;;;;;;12.95;3.85;;;;;;;;;;4953295;28;20027;-76
2023/05/20 04:57:40;;;;;;;8.77;4.55;;;;;;;;;;4954906;28;20026;-76
2023/05/20 05:00:06;;;;;;;10.82;3.75;;;;;;;;;;4966734;28;20031;-75
2023/05/20 05:02:33;;;;;;;13.18;3.08;;;;;;;;;;4952858;28;20118;-76
2023/05/20 05:04:59;;;;;;;9.02;3.88;;;;;;;;;;4958795;28;20058;-77
2023/05/20 05:07:26;;;;;;;11.27;3.78;;;;;;;;;;4959915;28;20027;-75
2023/05/20 05:09:52;;;;;;;13.52;2.88;;;;;;;;;;4967076;28;20031;-76
2023/05/20 05:12:18;;;;;;;11.55;4.03;;;;;;;;;;4964398;28;20070;-78
2023/05/20 05:14:44;;;;;;;11.73;3.55;;;;;;;;;;4958377;28;20030;-77
2023/05/20 05:17:10;;;;;;;11.52;2.92;;;;;;;;;;4969832;28;20034;-78
2023/05/20 05:19:36;;;;;;;10.13;3.60;;;;;;;;;;4952742;28;20027;-77
2023/05/20 05:22:02;;;;;;;10.15;4.05;;;;;;;;;;4934732;29;20039;-76
2023/05/20 05:24:29;;;;;;;6.07;2.70;;;;;;;;;;4969784;28;20081;-76
2023/05/20 05:26:55;;;;;;;6.05;2.53;;;;;;;;;;4953294;28;20035;-79
2023/05/20 05:29:21;;;;;;;5.65;2.88;;;;;;;;;;4969442;28;20119;-76
2023/05/20 05:31:47;;;;;;;14.25;4.05;;;;;;;;;;4970907;28;20507;-75
2023/05/20 05:34:13;;;;;;;10.57;2.42;;;;;;;;;;4971606;28;20485;-77
2023/05/20 05:36:40;;;;;;;9.23;2.90;;;;;;;;;;4971822;28;20051;-76
2023/05/20 05:39:07;;;;;;;5.70;1.98;;;;;;;;;;4971150;28;20023;-76
2023/05/20 05:41:33;;;;;;;7.70;2.13;;;;;;;;;;4959604;28;20078;-77
2023/05/20 05:43:59;;;;;;;9.05;2.65;;;;;;;;;;4945851;29;20522;-77
2023/05/20 05:46:25;;;;;;;11.05;3.95;;;;;;;;;;4968314;28;20019;-77
2023/05/20 05:48:51;;;;;;;9.05;2.20;;;;;;;;;;4970128;28;20089;-78
2023/05/20 05:51:17;;;;;;;8.88;2.40;;;;;;;;;;4955887;28;20043;-76
2023/05/20 05:53:43;;;;;;;10.07;3.50;;;;;;;;;;4947688;28;20030;-78
2023/05/20 05:56:10;;;;;;;8.32;3.58;;;;;;;;;;4970128;28;20029;-76
2023/05/20 05:58:36;;;;;;;8.55;3.40;;;;;;;;;;4962817;28;20027;-76
2023/05/20 06:01:02;;;;;;;9.20;3.08;;;;;;;;;;4963719;28;20030;-78
2023/05/20 06:03:29;;;;;;;7.55;3.25;;;;;;;;;;4950951;28;20023;-77
2023/05/20 06:05:55;;;;;;;6.85;3.00;;;;;;;;;;4965961;28;20382;-77
2023/05/20 06:08:21;;;;;;;8.98;3.65;;;;;;;;;;4955477;28;20477;-77
2023/05/20 06:10:51;;;;;;;6.95;2.10;;;;;;;;;;4950951;28;20028;-77
2023/05/20 06:13:17;;;;;;;6.25;2.83;;;;;;;;;;4933700;29;20047;-76
2023/05/20 06:15:45;;;;;;;7.30;3.58;;;;;;;;;;4950272;28;20062;-77
2023/05/20 06:18:11;;;;;;;5.97;1.85;;;;;;;;;;4957614;28;20026;-77
2023/05/20 06:20:37;;;;;;;7.05;2.38;;;;;;;;;;4951747;28;20061;-77
2023/05/20 06:23:03;;;;;;;6.70;2.65;;;;;;;;;;4944104;29;20111;-77
2023/05/20 06:25:29;;;;;;;10.15;3.15;;;;;;;;;;4942843;28;20031;-77
2023/05/20 06:27:55;;;;;;;15.98;2.53;;;;;;;;;;4966741;28;20137;-76
2023/05/20 06:30:22;;;;;;;4.85;1.95;;;;;;;;;;4962610;28;20027;-76
2023/05/20 06:32:48;;;;;;;6.85;1.90;;;;;;;;;;4965183;28;20035;-77
2023/05/20 06:35:14;;;;;;;8.95;2.20;;;;;;;;;;4964453;28;20042;-77
2023/05/20 06:37:40;;;;;;;8.45;3.50;;;;;;;;;;4962000;28;20062;-77
2023/05/20 06:40:06;;;;;;;9.93;2.15;;;;;;;;;;4965118;28;20042;-77
2023/05/20 06:42:32;;;;;;;7.43;2.20;;;;;;;;;;4952727;28;20027;-77
2023/05/20 06:44:58;;;;;;;6.28;2.47;;;;;;;;;;4954536;28;20027;-76
2023/05/20 06:47:24;;;;;;;3.97;1.73;;;;;;;;;;4970187;28;20019;-77
2023/05/20 06:49:50;;;;;;;6.35;2.80;;;;;;;;;;4963840;28;20116;-76
2023/05/20 06:52:16;;;;;;;7.65;1.98;;;;;;;;;;4969280;28;20114;-76
2023/05/20 06:54:45;;;;;;;7.93;2.67;;;;;;;;;;4964233;28;20023;-79
2023/05/20 06:57:14;;;;;;;10.88;2.33;;;;;;;;;;4966573;28;20031;-79
2023/05/20 06:59:40;;;;;;;7.97;2.60;;;;;;;;;;4965106;28;20034;-78
2023/05/20 07:02:06;;;;;;;7.15;2.45;;;;;;;;;;4950370;28;20085;-76
2023/05/20 07:04:32;;;;;;;9.43;2.08;;;;;;;;;;4970163;28;20019;-78
2023/05/20 07:06:58;;;;;;;5.90;1.80;;;;;;;;;;4972114;28;20031;-76
2023/05/20 07:09:24;;;;;;;5.82;2.40;;;;;;;;;;4970146;28;20370;-78
2023/05/20 07:11:50;;;;;;;8.68;2.40;;;;;;;;;;4968706;28;20053;-77
2023/05/20 07:14:16;;;;;;;4.85;2.40;;;;;;;;;;4965208;28;20253;-77
2023/05/20 07:16:42;;;;;;;4.93;1.98;;;;;;;;;;4971668;28;20054;-78
2023/05/20 07:19:08;;;;;;;11.95;2.97;;;;;;;;;;4949746;28;20472;-77
2023/05/20 07:21:35;;;;;;;5.35;2.03;;;;;;;;;;4970522;28;20034;-77
2023/05/20 07:24:01;;;;;;;7.15;2.42;;;;;;;;;;4954876;28;20034;-78
2023/05/20 07:26:27;;;;;;;5.03;2.30;;;;;;;;;;4972550;28;20045;-77
2023/05/20 07:28:53;;;;;;;7.78;2.45;;;;;;;;;;4971185;28;20602;-78
2023/05/20 07:31:19;;;;;;;5.35;2.05;;;;;;;;;;4972550;28;20074;-78
2023/05/20 07:33:45;;;;;;;6.47;1.75;;;;;;;;;;4966544;28;20039;-77
2023/05/20 07:36:11;;;;;;;8.27;2.67;;;;;;;;;;4968403;28;20465;-77
2023/05/20 07:38:38;;;;;;;10.00;2.40;;;;;;;;;;4937357;28;20084;-77
2023/05/20 07:41:05;;;;;;;7.10;1.85;;;;;;;;;;4972394;28;20038;-77
2023/05/20 07:43:31;;;;;;;6.43;1.95;;;;;;;;;;4971001;28;20026;-80
2023/05/20 07:45:57;;;;;;;7.72;2.13;;;;;;;;;;4972828;28;20035;-77
2023/05/20 07:48:23;;;;;;;17.98;1.80;;;;;;;;;;4969268;28;20023;-77
2023/05/20 07:50:49;;;;;;;7.15;1.85;;;;;;;;;;4972337;28;20514;-80
2023/05/20 07:53:15;;;;;;;12.52;2.05;;;;;;;;;;4954982;28;20027;-78
2023/05/20 07:55:41;;;;;;;6.72;1.92;;;;;;;;;;4970045;28;20034;-78
2023/05/20 07:58:07;;;;;;;6.50;2.40;;;;;;;;;;4955285;28;20050;-78
2023/05/20 08:00:33;;;;;;;3.53;1.40;;;;;;;;;;4970889;28;20060;-77
2023/05/20 08:02:59;;;;;;;8.63;2.40;;;;;;;;;;4971002;28;20030;-79
2023/05/20 08:05:26;;;;;;;5.60;2.40;;;;;;;;;;4952939;28;20089;-78
2023/05/20 08:07:55;;;;;;;5.18;2.20;;;;;;;;;;4970580;28;20073;-78
2023/05/20 08:10:21;;;;;;;5.18;1.75;;;;;;;;;;4969127;28;20023;-79
2023/05/20 08:12:47;;;;;;;9.43;3.03;;;;;;;;;;4960201;28;20078;-79
2023/05/20 08:15:13;;;;;;;12.63;2.85;;;;;;;;;;4952471;28;20036;-77
2023/05/20 08:17:39;;;;;;;6.55;2.00;;;;;;;;;;4959086;28;20093;-77
2023/05/20 08:20:07;;;;;;;7.90;1.88;;;;;;;;;;4960852;28;20035;-79
2023/05/20 08:22:34;;;;;;;5.55;1.77;;;;;;;;;;4943285;28;20030;-77
2023/05/20 08:25:00;;;;;;;5.10;2.13;;;;;;;;;;4953526;29;20061;-78
2023/05/20 08:27:27;;;;;;;5.75;2.03;;;;;;;;;;4963695;28;20019;-82
2023/05/20 08:29:53;;;;;;;6.75;2.40;;;;;;;;;;4963124;28;20031;-82
2023/05/20 08:32:19;;;;;;;10.18;2.67;;;;;;;;;;4981345;28;20043;-78
2023/05/20 08:34:48;;;;;;;4.97;2.20;;;;;;;;;;4982454;28;20170;-82
2023/05/20 08:37:14;;;;;;;4.25;1.80;;;;;;;;;;4983562;28;20065;-80
2023/05/20 08:39:40;;;;;;;4.78;1.73;;;;;;;;;;4985648;28;20035;-82
2023/05/20 08:42:06;;;;;;;5.55;1.95;;;;;;;;;;4971610;28;20437;-79
2023/05/20 08:44:33;;;;;;;3.85;2.03;;;;;;;;;;4979803;28;20023;-80
2023/05/20 08:47:02;;;;;;;3.97;1.60;;;;;;;;;;4949348;28;20393;-80
2023/05/20 08:49:29;;;;;;;3.95;1.80;;;;;;;;;;4980389;28;20354;-79
2023/05/20 08:51:55;;;;;;;4.85;1.63;;;;;;;;;;4964892;28;20043;-80
2023/05/20 08:54:25;;;;;;;3.08;1.25;;;;;;;;;;4955006;28;20032;-82
2023/05/20 08:56:52;;;;;;;4.60;2.30;;;;;;;;;;4956079;28;20023;-75
2023/05/20 08:59:19;;;;;;;4.60;1.98;;;;;;;;;;4971099;28;20054;-83
2023/05/20 09:01:45;;;;;;;5.47;2.00;;;;;;;;;;4970867;28;20027;-83
2023/05/20 09:04:11;;;;;;;6.82;1.58;;;;;;;;;;4958246;28;20027;-80
2023/05/20 09:06:43;;;;;;;6.47;1.80;;;;;;;;;;4961506;28;20031;-78
2023/05/20 09:09:10;;;;;;;3.63;1.67;;;;;;;;;;4960152;28;20023;-81
2023/05/20 09:11:37;;;;;;;3.28;1.33;;;;;;;;;;4954153;28;20130;-81
2023/05/20 09:14:03;;;;;;;5.70;1.60;;;;;;;;;;4959127;28;20412;-81
2023/05/20 09:16:29;;;;;;;5.00;1.50;;;;;;;;;;4971613;28;20532;-82
2023/05/20 09:18:55;;;;;;;3.53;1.40;;;;;;;;;;4961280;28;20035;-82
2023/05/20 09:21:25;;;;;;;3.05;1.10;;;;;;;;;;4959566;28;20055;-81
2023/05/20 09:23:52;;;;;;;;;;;;;;;;;;4955406;28;20115;-80
2023/05/20 09:26:20;;;;;;;5.55;1.60;;;;;;;;;;4961525;28;19913;-82
2023/05/20 09:28:46;;;;;;;3.22;1.33;;;;;;;;;;4969012;28;20019;-81
2023/05/20 09:31:17;;;;;;;3.67;1.30;;;;;;;;;;4948154;29;20485;-79
2023/05/20 09:33:42;;;;;;;;;;;;;;;;;;4956877;28;20117;-82
2023/05/20 09:36:09;;;;;;;4.78;2.00;;;;;;;;;;4957672;28;19968;-82
2023/05/20 09:38:38;;;;;;;3.58;1.30;;;;;;;;;;4959164;28;20045;-79
2023/05/20 09:41:14;;;;;;;2.47;1.15;;;;;;;;;;4975036;28;20050;-79
2023/05/20 09:43:40;;;;;;;4.28;1.80;;;;;;;;;;4960006;28;20451;-83
2023/05/20 09:46:08;;;;;;;4.68;1.70;;;;;;;;;;4937359;29;20034;-80
2023/05/20 09:48:37;;;;;;;3.75;1.40;;;;;;;;;;4965785;28;20038;-81
2023/05/20 09:51:04;;;;;;;6.88;1.75;;;;;;;;;;4970601;28;20031;-80
2023/05/20 09:53:30;;;;;;;3.40;1.48;;;;;;;;;;4968933;28;20042;-81
2023/05/20 09:55:56;;;;;;;3.28;1.23;;;;;;;;;;4970889;28;20377;-80
2023/05/20 09:58:24;;;;;;;3.55;1.13;;;;;;;;;;4964477;28;20614;-79
2023/05/20 10:00:50;;;;;;;4.03;1.50;;;;;;;;;;4958200;28;20141;-83
2023/05/20 10:03:17;;;;;;;4.40;1.30;;;;;;;;;;4966697;28;20130;-83
2023/05/20 10:05:51;;;;;;;3.92;1.40;;;;;;;;;;4971072;28;20050;-82
2023/05/20 10:08:38;;;;;;;6.85;1.48;;;;;;;;;;4959007;28;20098;-83
2023/05/20 10:11:04;;;;;;;3.60;1.40;;;;;;;;;;4950273;28;20121;-78
2023/05/20 10:13:42;;;;;;;3.00;1.38;;;;;;;;;;4963765;28;20113;-80
2023/05/20 10:16:24;;;;;;;5.55;1.67;;;;;;;;;;4954420;28;20367;-85
2023/05/20 10:18:50;;;;;;;4.00;1.35;;;;;;;;;;4956677;28;20035;-85
2023/05/20 10:21:24;;;;;;;2.90;1.23;;;;;;;;;;4978607;28;20031;-83
2023/05/20 10:23:51;;;;;;;3.80;1.13;;;;;;;;;;4961565;28;20031;-85
2023/05/20 10:26:36;;;;;;;4.70;1.35;;;;;;;;;;4961599;28;20114;-82
2023/05/20 10:29:02;;;;;;;2.65;1.50;;;;;;;;;;4979081;28;20050;-83
2023/05/20 10:31:33;;;;;;;4.00;1.63;;;;;;;;;;4970656;28;20034;-87
2023/05/20 10:34:03;;;;;;;3.95;1.65;;;;;;;;;;4968687;28;20031;-86
2023/05/20 10:36:32;;;;;;;5.07;1.40;;;;;;;;;;4966522;28;20491;-82
2023/05/20 10:38:59;;;;;;;3.78;1.58;;;;;;;;;;4971484;28;20024;-83
2023/05/20 10:41:26;;;;;;;3.95;1.85;;;;;;;;;;4954344;28;20042;-80
2023/05/20 10:44:02;;;;;;;3.00;1.70;;;;;;;;;;4972406;28;20034;-83
2023/05/20 10:46:30;;;;;;;3.08;1.25;;;;;;;;;;4979373;28;20453;-83
2023/05/20 10:48:56;;;;;;;2.28;1.25;;;;;;;;;;4975480;28;20034;-83
2023/05/20 10:51:23;;;;;;;4.38;1.05;;;;;;;;;;4970789;28;20058;-83
2023/05/20 10:53:52;;;;;;;4.32;1.40;;;;;;;;;;4968386;28;20038;-82
2023/05/20 10:56:20;;;;;;;3.50;1.65;;;;;;;;;;4976357;28;20034;-84
2023/05/20 10:58:47;;;;;;;3.63;1.40;;;;;;;;;;4954004;28;20057;-80
2023/05/20 11:01:13;;;;;;;2.08;1.08;;;;;;;;;;4979973;28;20031;-82
2023/05/20 11:03:43;;;;;;;4.75;1.50;;;;;;;;;;4968798;28;20023;-85
2023/05/20 11:06:12;;;;;;;3.03;1.30;;;;;;;;;;4966305;28;20038;-82
2023/05/20 11:08:43;;;;;;;4.35;1.33;;;;;;;;;;4977378;28;20030;-84
2023/05/20 11:11:10;;;;;;;4.22;1.90;;;;;;;;;;4965789;28;20063;-78
2023/05/20 11:13:36;;;;;;;4.10;1.20;;;;;;;;;;4953348;28;20705;-78
2023/05/20 11:16:03;;;;;;;3.03;1.60;;;;;;;;;;4953755;28;20098;-79
2023/05/20 11:18:30;;;;;;;3.60;1.65;;;;;;;;;;4960663;28;20026;-76
2023/05/20 11:21:00;;;;;;;4.97;1.45;;;;;;;;;;4952862;28;20035;-80
2023/05/20 11:23:27;;;;;;;2.50;1.40;;;;;;;;;;4958267;28;20055;-77
2023/05/20 11:25:54;;;;;;;5.10;1.70;;;;;;;;;;4951349;28;20484;-76
2023/05/20 11:28:20;;;;;;;2.83;1.60;;;;;;;;;;4939773;28;20557;-77
2023/05/20 11:30:47;;;;;;;4.82;1.50;;;;;;;;;;4933752;29;20031;-78
2023/05/20 11:33:14;;;;;;;3.25;1.67;;;;;;;;;;4950652;28;20034;-78
2023/05/20 11:35:47;;;;;;;5.97;2.15;;;;;;;;;;4957231;28;20061;-79
2023/05/20 11:38:14;;;;;;;5.28;1.70;;;;;;;;;;4951624;28;20034;-79
2023/05/20 11:40:52;;;;;;;3.78;1.48;;;;;;;;;;4967269;28;20015;-78
2023/05/20 11:43:19;;;;;;;5.47;1.35;;;;;;;;;;4969158;28;20374;-79
2023/05/20 11:45:46;;;;;;;6.28;1.80;;;;;;;;;;4969083;28;20026;-78
2023/05/20 11:48:14;;;;;;;6.82;1.80;;;;;;;;;;4956725;28;20038;-78
2023/05/20 11:50:44;;;;;;;4.97;1.63;;;;;;;;;;4967489;28;20026;-77
2023/05/20 11:53:11;;;;;;;6.50;1.55;;;;;;;;;;4973768;28;20035;-77
2023/05/20 11:55:48;;;;;;;5.55;1.50;;;;;;;;;;4973103;28;20081;-78
2023/05/20 11:58:21;;;;;;;6.38;2.50;;;;;;;;;;4972114;28;20114;-77
2023/05/20 12:00:47;;;;;;;4.07;1.38;;;;;;;;;;4973143;28;20026;-78
2023/05/20 12:03:16;;;;;;;3.83;1.13;;;;;;;;;;4957573;28;20086;-79
2023/05/20 12:05:42;;;;;;;5.15;1.50;;;;;;;;;;4955883;28;20039;-79
2023/05/20 12:08:08;;;;;;;2.00;1.10;;;;;;;;;;4970836;28;20038;-77
2023/05/20 12:10:36;;;;;;;3.53;1.35;;;;;;;;;;4965278;28;20027;-78
2023/05/20 12:13:02;;;;;;;3.08;1.25;;;25.40;68.10;;;;;;4972166;28;20516;-80
2023/05/20 12:15:28;;;;;;;4.70;1.23;;;25.60;66.40;;;;;;4961659;28;20040;-80
2023/05/20 12:17:54;;;;;;;6.90;1.60;;;25.60;73.00;;;;;;4969199;28;20030;-79
2023/05/20 12:20:24;;;;;;;3.88;1.38;;;25.70;67.90;;;;;;4972482;28;20035;-78
2023/05/20 12:22:50;;;;;;;8.20;1.55;;;25.60;68.30;;;;;;4971980;28;20471;-78
2023/05/20 12:25:18;;;;;;;5.57;1.67;;;25.60;70.50;;;;;;4954674;28;20512;-79
2023/05/20 12:27:48;;;;;;;5.30;1.45;;;25.50;69.90;;;;;;4954024;28;20555;-79
2023/05/20 12:30:16;;;;;;;3.72;1.40;;;25.50;72.40;;;;;;4970924;28;20151;-77
2023/05/20 12:32:42;;;;;;;4.10;1.42;;;25.40;62.70;;;;;;4952598;28;20046;-79
2023/05/20 12:35:09;;;;;;;10.13;1.42;;;25.30;67.60;;;;;;4956570;28;20030;-78
2023/05/20 12:37:36;;;;;;;4.25;1.35;;;25.10;71.30;;;;;;4956447;28;20085;-78
2023/05/20 12:40:06;;;;;;;4.85;1.20;;;24.80;66.20;;;;;;4972151;28;20078;-78
2023/05/20 12:42:39;;;;;;;4.97;1.55;;;24.60;72.10;;;;;;4959288;28;20054;-79
2023/05/20 12:45:06;;;;;;;5.57;1.33;;;24.40;73.10;;;;;;4970321;28;20050;-79
2023/05/20 12:47:32;;;;;;;8.35;1.65;;;24.30;64.50;;;;;;4949389;28;20916;-77
2023/05/20 12:49:58;;;;;;;3.88;1.08;;;24.30;70.80;;;;;;4952148;28;20039;-78
2023/05/20 12:52:25;;;;;;;6.60;1.60;;;24.30;73.60;;;;;;4950647;28;20036;-79
2023/05/20 12:54:54;;;;;;;7.47;1.50;;;24.30;72.20;;;;;;4950878;28;20080;-80
2023/05/20 12:57:21;;;;;;;5.65;1.50;;;24.30;67.50;;;;;;4950393;28;20093;-78
2023/05/20 12:59:46;;;;;;;6.03;1.50;;;24.30;64.90;;;;;;4963925;28;20029;-77
2023/05/20 13:02:12;;;;;;;3.72;1.27;;;24.30;67.00;;;;;;4953523;28;20429;-79
2023/05/20 13:04:38;;;;;;;2.72;1.40;;;24.30;59.90;;;;;;4951530;28;20043;-78
2023/05/20 13:07:03;;;;;;;3.15;1.40;;;24.40;60.20;;;;;;4935085;29;20519;-77
2023/05/20 13:09:29;;;;;;;3.63;1.40;;;24.40;57.60;;;;;;4951672;28;20027;-78
2023/05/20 13:11:55;;;;;;;3.75;1.33;;;24.30;57.30;;;;;;4951813;28;20043;-80
2023/05/20 13:14:21;;;;;;;4.07;1.88;;;24.20;64.20;;;;;;4965269;28;20028;-78
2023/05/20 13:16:48;;;;;;;3.17;1.38;;;24.20;59.70;;;;;;4951140;28;20034;-79
2023/05/20 13:19:13;;;;;;;7.95;1.50;;;24.10;62.90;;;;;;4950676;28;20391;-79
2023/05/20 13:21:39;;;;;;;3.33;1.30;;;24.00;69.60;;;;;;4950870;28;20030;-77
2023/05/20 13:24:05;;;;;;;3.78;1.42;;;24.00;71.70;;;;;;4951255;28;20042;-77
2023/05/20 13:26:30;;;;;;;3.30;1.25;;;24.10;68.60;;;;;;4955763;28;20026;-80
2023/05/20 13:28:56;;;;;;;5.50;1.20;;;24.20;72.20;;;;;;4952049;28;20023;-78
2023/05/20 13:31:22;;;;;;;2.92;1.52;;;24.40;70.90;;;;;;4969111;28;20082;-79
2023/05/20 13:33:47;;;;;;;6.93;1.60;;;24.40;69.60;;;;;;4968683;28;20031;-78
2023/05/20 13:36:13;;;;;;;4.88;1.75;;;24.20;64.00;;;;;;4967790;28;20519;-79
2023/05/20 13:38:39;;;;;;;3.50;1.15;;;24.20;63.50;;;;;;4934488;28;20418;-79
2023/05/20 13:41:04;;;;;;;3.65;1.90;;;24.20;69.70;;;;;;4952243;28;20097;-78
2023/05/20 13:43:32;;;;;;;4.07;1.42;;;24.20;65.40;;;;;;4950791;28;20847;-77
2023/05/20 13:45:58;;;;;;;4.40;1.83;;;24.10;65.50;;;;;;4943408;28;20035;-79
2023/05/20 13:48:23;;;;;;;3.70;1.55;;;24.20;68.90;;;;;;4954575;28;20023;-78
2023/05/20 13:50:49;;;;;;;3.42;1.13;;;24.20;68.50;;;;;;4950074;28;20086;-78
2023/05/20 13:53:14;;;;;;;5.40;1.58;;;24.20;70.60;;;;;;4932190;28;20243;-78
2023/05/20 13:55:41;;;;;;;6.72;1.50;;;24.20;66.10;;;;;;4959340;28;20023;-79
2023/05/20 13:58:08;;;;;;;2.83;1.20;;;24.20;60.00;;;;;;4953344;28;20027;-78
2023/05/20 14:00:37;;;;;;;5.80;1.48;;;24.30;70.50;;;;;;4959983;28;20856;-78
2023/05/20 14:03:03;;;;;;;4.20;1.20;;;24.40;68.00;;;;;;4967017;28;20055;-80
2023/05/20 14:05:31;;;;;;;3.40;1.27;;;24.40;68.70;;;;;;4953519;28;20140;-78
2023/05/20 14:07:57;;;;;;;4.45;1.48;;;24.40;62.90;;;;;;4952096;28;20401;-79
2023/05/20 14:10:22;;;;;;;3.38;1.20;;;24.50;68.00;;;;;;4951935;28;20031;-77
2023/05/20 14:12:48;;;;;;;5.03;1.25;;;24.60;69.50;;;;;;4967940;28;20027;-78
2023/05/20 14:15:14;;;;;;;3.40;1.45;;;24.50;65.80;;;;;;4960620;28;20042;-75
2023/05/20 14:17:39;;;;;;;3.75;1.50;;;24.40;67.50;;;;;;4964028;28;20138;-77
2023/05/20 14:20:07;;;;;;;4.90;1.30;;;24.20;69.90;;;;;;4961264;28;20029;-77